Time;durP1;ratioP1;P1;durP2;ratioP2;P2;SDS_P1;SDS_P2;PMS_P1;PMS_P2;Temp;Humidity;BMP_temperature;BMP_pressure;BME280_temperature;BME280_humidity;BME280_pressure;Samples;Min_cycle;Max_cycle;Signal;HPM_P1;HPM_P2
2022/03/27 00:03:28;;;;;;;25.23;12.35;;;;;;;5.62;100.00;103317.66;10371048;28;20422;-68
2022/03/27 00:08:29;;;;;;;26.52;12.73;;;;;;;5.64;100.00;103322.94;10354668;28;20057;-68
2022/03/27 00:13:29;;;;;;;25.27;11.15;;;;;;;5.68;100.00;103316.13;10364105;28;20042;-67
2022/03/27 00:18:30;;;;;;;25.77;10.75;;;;;;;5.64;100.00;103325.69;10388248;28;20095;-67
2022/03/27 00:23:31;;;;;;;27.50;12.57;;;;;;;5.57;100.00;103300.88;10371193;28;20482;-67
2022/03/27 00:28:34;;;;;;;22.25;11.15;;;;;;;5.58;100.00;103312.66;10370908;28;20082;-68
2022/03/27 00:33:35;;;;;;;20.33;9.88;;;;;;;5.51;100.00;103315.19;10394040;28;20071;-67
2022/03/27 00:38:36;;;;;;;26.42;10.00;;;;;;;5.55;100.00;103326.66;10410010;28;20494;-68
2022/03/27 00:43:39;;;;;;;19.70;9.80;;;;;;;5.61;100.00;103331.47;10394927;28;20053;-68
2022/03/27 00:48:39;;;;;;;20.83;10.18;;;;;;;5.50;100.00;103309.88;10428731;28;20025;-68
2022/03/27 00:53:40;;;;;;;23.15;9.95;;;;;;;5.50;100.00;103304.41;10429243;28;20037;-67
2022/03/27 00:58:40;;;;;;;28.40;9.45;;;;;;;5.50;100.00;103312.59;10378141;28;20084;-67
2022/03/27 01:03:41;;;;;;;18.63;8.43;;;;;;;5.52;100.00;103316.03;10373413;28;20045;-68
2022/03/27 01:14:01;;;;;;;18.98;8.63;;;;;;;5.35;100.00;103280.41;10387337;28;20110;-67
2022/03/27 01:19:02;;;;;;;18.63;7.45;;;;;;;5.47;100.00;103303.72;10403475;28;20085;-67
2022/03/27 01:24:03;;;;;;;17.77;6.75;;;;;;;5.47;100.00;103287.31;10369723;28;20089;-70
2022/03/27 01:29:04;;;;;;;22.85;6.78;;;;;;;5.55;100.00;103291.13;10385515;28;20072;-67
2022/03/27 01:34:05;;;;;;;24.90;6.32;;;;;;;5.45;100.00;103283.88;10392050;28;20073;-69
2022/03/27 01:39:07;;;;;;;18.73;6.75;;;;;;;5.46;100.00;103280.16;10409638;28;20030;-68
2022/03/27 01:44:09;;;;;;;15.55;6.57;;;;;;;5.27;100.00;103263.97;10394246;28;20112;-68
2022/03/27 01:49:12;;;;;;;20.60;6.93;;;;;;;5.11;100.00;103262.00;10433302;28;20032;-68
2022/03/27 01:54:13;;;;;;;16.02;7.68;;;;;;;5.09;100.00;103274.09;10433875;28;20041;-68
2022/03/27 01:59:14;;;;;;;18.60;6.90;;;;;;;4.82;100.00;103251.38;10401109;28;20038;-69
2022/03/27 02:04:14;;;;;;;20.17;8.75;;;;;;;4.82;100.00;103265.00;10416111;28;20053;-69
2022/03/27 02:09:15;;;;;;;17.10;8.07;;;;;;;4.78;100.00;103258.16;10416557;28;20088;-68
2022/03/27 02:14:15;;;;;;;26.20;8.52;;;;;;;4.62;100.00;103248.78;10392152;28;20049;-68
2022/03/27 02:19:16;;;;;;;14.82;8.98;;;;;;;4.61;100.00;103259.84;10359547;28;20050;-68
2022/03/27 02:24:16;;;;;;;18.50;9.82;;;;;;;4.61;100.00;103268.91;10408404;28;20033;-68
2022/03/27 02:29:17;;;;;;;17.17;9.10;;;;;;;4.59;100.00;103270.94;10375532;28;20088;-69
2022/03/27 02:34:18;;;;;;;15.55;7.53;;;;;;;4.56;100.00;103271.25;10377030;28;20382;-68
2022/03/27 02:39:18;;;;;;;19.38;10.18;;;;;;;4.57;100.00;103272.97;10413063;28;20046;-68
2022/03/27 02:44:20;;;;;;;20.17;9.35;;;;;;;4.60;100.00;103271.78;10375171;28;20038;-67
2022/03/27 02:49:21;;;;;;;26.65;8.82;;;;;;;4.59;100.00;103260.03;10391283;28;20116;-68
2022/03/27 02:54:21;;;;;;;20.80;8.60;;;;;;;4.62;100.00;103265.16;10342062;28;20041;-69
2022/03/27 02:59:22;;;;;;;19.90;9.15;;;;;;;4.65;100.00;103264.88;10389799;28;20413;-69
2022/03/27 03:04:22;;;;;;;20.65;8.13;;;;;;;4.68;100.00;103257.38;10408778;28;20607;-69
2022/03/27 03:09:23;;;;;;;20.38;8.27;;;;;;;4.83;100.00;103278.47;10414544;28;20700;-68
2022/03/27 03:14:23;;;;;;;28.08;9.43;;;;;;;4.86;100.00;103260.97;10396403;28;20121;-68
2022/03/27 03:19:24;;;;;;;30.92;9.77;;;;;;;4.90;100.00;103262.34;10373313;28;20030;-68
2022/03/27 03:24:25;;;;;;;24.65;9.27;;;;;;;4.96;100.00;103252.66;10373192;28;20084;-68
2022/03/27 03:29:26;;;;;;;18.13;8.57;;;;;;;4.97;100.00;103252.50;10372768;28;20050;-69
2022/03/27 03:34:26;;;;;;;27.75;8.60;;;;;;;5.09;100.00;103269.50;10373188;28;20033;-69
2022/03/27 03:39:27;;;;;;;24.83;9.18;;;;;;;5.01;100.00;103242.97;10356155;28;20033;-69
2022/03/27 03:44:27;;;;;;;32.28;8.35;;;;;;;5.18;100.00;103260.31;10357335;28;20092;-68
2022/03/27 03:49:28;;;;;;;25.67;7.68;;;;;;;5.18;100.00;103259.47;10355992;28;20033;-69
2022/03/27 03:54:29;;;;;;;39.08;8.02;;;;;;;5.19;100.00;103255.75;10355755;28;20374;-69
2022/03/27 03:59:31;;;;;;;32.45;7.65;;;;;;;5.12;100.00;103235.53;10388160;28;20038;-68
2022/03/27 04:04:32;;;;;;;37.78;7.90;;;;;;;5.16;100.00;103234.22;10388131;28;20081;-68
2022/03/27 04:09:33;;;;;;;28.60;6.43;;;;;;;5.20;100.00;103235.59;10373456;28;20505;-69
2022/03/27 04:14:36;;;;;;;31.35;7.65;;;;;;;5.22;100.00;103233.56;10411864;28;20029;-69
2022/03/27 04:19:36;;;;;;;32.97;7.10;;;;;;;5.17;100.00;103214.94;10428424;28;20036;-68
2022/03/27 04:24:37;;;;;;;33.40;8.85;;;;;;;5.16;100.00;103217.81;10428262;28;20046;-68
2022/03/27 04:29:37;;;;;;;47.00;8.85;;;;;;;5.22;100.00;103234.41;10395527;28;20040;-68
2022/03/27 04:34:38;;;;;;;36.65;8.27;;;;;;;5.31;100.00;103248.97;10378155;28;20064;-69
2022/03/27 04:39:38;;;;;;;30.83;6.80;;;;;;;5.35;100.00;103238.59;10412118;28;20030;-68
2022/03/27 04:44:39;;;;;;;31.73;6.70;;;;;;;4.93;100.00;103174.66;10351793;28;20038;-68
2022/03/27 04:49:39;;;;;;;36.30;7.63;;;;;;;5.34;100.00;103242.34;10353867;28;20063;-68
2022/03/27 04:54:40;;;;;;;49.75;8.52;;;;;;;5.31;100.00;103235.31;10354121;28;20026;-68
2022/03/27 04:59:40;;;;;;;37.05;7.57;;;;;;;5.35;100.00;103255.81;10386428;28;20041;-69
2022/03/27 05:04:41;;;;;;;48.17;7.82;;;;;;;5.30;100.00;103247.28;10385633;28;20033;-68
2022/03/27 05:09:41;;;;;;;39.95;7.80;;;;;;;5.33;100.00;103252.41;10386878;28;20046;-69
2022/03/27 05:14:42;;;;;;;40.05;7.18;;;;;;;5.30;100.00;103247.28;10388652;28;20107;-68
2022/03/27 05:19:42;;;;;;;40.13;7.75;;;;;;;5.23;100.00;103241.59;10410720;28;20371;-68
2022/03/27 05:24:43;;;;;;;29.77;6.88;;;;;;;5.30;100.00;103257.34;10401936;28;20037;-69
2022/03/27 05:29:43;;;;;;;37.80;7.05;;;;;;;5.32;100.00;103261.63;10418466;28;20042;-68
2022/03/27 05:34:44;;;;;;;31.48;8.40;;;;;;;5.36;100.00;103262.16;10400814;28;20034;-68
2022/03/27 05:39:44;;;;;;;27.45;8.48;;;;;;;5.38;100.00;103262.88;10418914;28;20026;-69
2022/03/27 05:44:45;;;;;;;27.70;6.70;;;;;;;5.41;100.00;103259.78;10418350;28;20022;-68
2022/03/27 05:49:47;;;;;;;28.23;7.93;;;;;;;5.46;100.00;103269.22;10401509;28;20398;-69
2022/03/27 05:54:47;;;;;;;38.90;9.70;;;;;;;5.50;100.00;103263.44;10428841;28;20040;-69
2022/03/27 05:59:48;;;;;;;43.13;7.75;;;;;;;5.53;100.00;103252.19;10388087;28;20033;-68
2022/03/27 06:04:48;;;;;;;47.05;8.40;;;;;;;5.56;100.00;103263.66;10433551;28;20064;-69
2022/03/27 06:09:49;;;;;;;38.95;7.78;;;;;;;5.67;100.00;103265.25;10401315;28;20056;-68
2022/03/27 06:14:49;;;;;;;43.88;8.90;;;;;;;5.77;100.00;103276.91;10433782;28;20041;-68
2022/03/27 06:19:50;;;;;;;51.90;9.90;;;;;;;5.87;100.00;103260.41;10384330;28;20512;-68
2022/03/27 06:24:50;;;;;;;43.40;10.10;;;;;;;5.98;100.00;103281.13;10394089;28;20493;-69
2022/03/27 06:29:51;;;;;;;46.28;9.85;;;;;;;5.93;100.00;103280.72;10394913;28;20393;-69
2022/03/27 06:34:55;;;;;;;38.78;8.27;;;;;;;6.03;100.00;103278.75;10432521;28;20041;-68
2022/03/27 06:39:55;;;;;;;48.97;9.50;;;;;;;6.07;100.00;103267.31;10433037;28;20030;-68
2022/03/27 06:44:56;;;;;;;39.95;9.98;;;;;;;6.31;100.00;103279.38;10399806;28;20033;-68
2022/03/27 06:49:57;;;;;;;46.58;8.18;;;;;;;6.50;100.00;103278.22;10392794;28;20050;-69
2022/03/27 06:54:57;;;;;;;40.42;8.88;;;;;;;6.59;100.00;103277.19;10342387;28;20112;-69
2022/03/27 07:05:17;;;;;;;45.70;11.95;;;;;;;6.65;100.00;103271.03;10389534;28;20033;-68
2022/03/27 07:10:17;;;;;;;50.03;9.43;;;;;;;6.80;100.00;103279.44;10358337;28;20054;-69
2022/03/27 07:15:18;;;;;;;51.97;8.48;;;;;;;6.96;100.00;103284.06;10432482;28;20060;-69
2022/03/27 07:20:26;;;;;;;42.35;8.10;;;;;;;7.08;100.00;103276.34;10398259;28;20027;-69
2022/03/27 07:25:28;;;;;;;41.67;8.70;;;;;;;7.22;100.00;103272.06;10398375;28;20106;-68
2022/03/27 07:30:28;;;;;;;39.40;7.63;;;;;;;7.52;100.00;103291.53;10428302;28;20053;-69
2022/03/27 07:35:30;;;;;;;36.83;8.45;;;;;;;7.44;100.00;103275.97;10413239;28;20025;-69
2022/03/27 07:40:31;;;;;;;39.55;8.65;;;;;;;7.47;100.00;103281.09;10432215;28;20026;-69
2022/03/27 07:45:32;;;;;;;45.33;8.00;;;;;;;7.51;100.00;103287.09;10433099;28;20044;-68
2022/03/27 07:50:32;;;;;;;41.50;7.20;;;;;;;7.46;100.00;103271.16;10448700;28;20088;-69
2022/03/27 07:55:33;;;;;;;46.45;9.98;;;;;;;7.38;100.00;103269.31;10427119;28;20080;-69
2022/03/27 08:00:33;;;;;;;39.45;8.73;;;;;;;7.58;100.00;103286.19;10397882;28;20045;-69
2022/03/27 08:05:34;;;;;;;39.25;8.43;;;;;;;7.70;100.00;103294.06;10400590;28;20033;-68
2022/03/27 08:10:34;;;;;;;33.60;7.82;;;;;;;7.62;100.00;103279.34;10448418;28;20049;-69
2022/03/27 08:15:35;;;;;;;35.90;7.97;;;;;;;7.54;100.00;103281.25;10405403;28;20037;-69
2022/03/27 08:20:35;;;;;;;37.55;8.02;;;;;;;7.39;100.00;103278.38;10406233;28;20040;-69
2022/03/27 08:30:55;;;;;;;33.40;9.38;;;;;;;7.25;100.00;103269.81;10430849;28;20056;-69
2022/03/27 08:35:57;;;;;;;41.13;8.55;;;;;;;7.56;100.00;103293.75;10429012;28;20095;-69
2022/03/27 08:41:01;;;;;;;36.33;7.97;;;;;;;8.21;100.00;103292.66;10427807;28;20033;-69
2022/03/27 08:46:02;;;;;;;44.08;7.80;;;;;;;8.43;100.00;103281.94;10411942;28;20490;-68
2022/03/27 08:51:26;;;;;;;38.45;8.43;;;;;;;8.68;100.00;103286.25;10367973;28;20030;-68
2022/03/27 08:56:28;;;;;;;42.83;8.60;;;;;;;8.96;100.00;103288.41;10390420;28;20084;-69
2022/03/27 09:01:28;;;;;;;41.75;7.50;;;;;;;8.87;100.00;103284.88;10363776;28;20188;-69
2022/03/27 09:06:29;;;;;;;45.05;8.07;;;;;;;9.09;100.00;103293.28;10395395;28;20335;-69
2022/03/27 09:11:31;;;;;;;58.45;10.13;;;;;;;9.26;100.00;103283.88;10377362;28;20061;-69
2022/03/27 09:17:05;;;;;;;37.03;6.88;;;;;;;9.40;100.00;103278.56;10390499;28;20482;-69
2022/03/27 09:22:15;;;;;;;36.30;6.95;;;;;;;9.62;100.00;103287.78;10420836;28;20033;-69
2022/03/27 09:27:15;;;;;;;38.97;6.10;;;;;;;9.70;100.00;103280.28;10452482;28;20030;-69
2022/03/27 09:32:29;;;;;;;34.83;7.80;;;;;;;9.85;100.00;103277.53;10438873;28;20092;-69
2022/03/27 09:37:31;;;;;;;27.90;6.40;;;;;;;9.94;100.00;103260.91;10421175;28;20037;-69
2022/03/27 09:42:32;;;;;;;39.70;6.43;;;;;;;10.09;100.00;103257.13;10449760;28;20457;-69
2022/03/27 09:47:32;;;;;;;39.35;7.32;;;;;;;10.16;100.00;103254.44;10436739;28;20041;-69
2022/03/27 09:52:37;;;;;;;37.10;7.78;;;;;;;10.22;100.00;103261.91;10406879;28;20507;-69
2022/03/27 09:57:41;;;;;;;32.70;6.60;;;;;;;10.25;100.00;103256.03;10453689;28;20041;-69
2022/03/27 10:02:42;;;;;;;34.47;6.55;;;;;;;10.36;100.00;103251.09;10417536;28;20045;-69
2022/03/27 10:07:44;;;;;;;36.55;7.15;;;;;;;10.81;100.00;103249.00;10416483;28;20040;-69
2022/03/27 10:12:46;;;;;;;29.30;5.88;;;;;;;11.08;100.00;103237.16;10454802;28;20068;-70
2022/03/27 10:18:13;;;;;;;32.50;6.18;;;;;;;11.32;100.00;103235.00;10386375;28;20378;-69
2022/03/27 10:23:21;;;;;;;27.95;6.18;;;;;;;11.34;100.00;103226.53;10385491;28;20041;-70
2022/03/27 10:28:21;;;;;;;33.90;6.50;;;;;;;11.63;100.00;103225.44;10360276;28;20064;-71
2022/03/27 10:33:26;;;;;;;32.55;5.85;;;;;;;11.80;100.00;103210.25;10359509;28;20395;-69
2022/03/27 10:38:50;;;;;;;28.30;5.68;;;;;;;12.08;100.00;103212.06;10359449;28;20109;-71
2022/03/27 10:44:19;;;;;;;19.60;5.00;;;;;;;12.21;100.00;103201.06;10393929;28;20034;-70
2022/03/27 10:49:19;;;;;;;20.40;4.90;;;;;;;12.31;100.00;103198.75;10392280;28;20076;-70
2022/03/27 10:54:20;;;;;;;24.17;5.43;;;;;;;12.53;100.00;103146.09;10393056;28;20100;-70
2022/03/27 10:59:24;;;;;;;23.05;6.03;;;;;;;13.08;100.00;103168.81;10391276;28;20022;-70
2022/03/27 11:04:34;;;;;;;24.98;6.82;;;;;;;13.55;96.86;103173.41;10358255;28;20137;-70
2022/03/27 11:09:36;;;;;;;27.88;6.82;;;;;;;13.57;94.38;103157.44;10390897;28;20077;-72
2022/03/27 11:14:52;;;;;;;34.95;6.35;;;;;;;13.78;92.06;103167.34;10374260;28;20073;-71
2022/03/27 11:19:52;;;;;;;25.05;6.10;;;;;;;13.50;89.67;103141.69;10389387;28;20022;-71
2022/03/27 11:25:24;;;;;;;29.50;6.63;;;;;;;13.69;88.94;103148.22;10357288;28;20064;-72
2022/03/27 11:30:25;;;;;;;28.10;6.00;;;;;;;13.77;86.88;103133.28;10373890;28;20030;-73
2022/03/27 11:35:25;;;;;;;23.75;5.43;;;;;;;13.74;88.32;103119.88;10422150;28;20034;-72
2022/03/27 11:40:37;;;;;;;22.75;5.38;;;;;;;14.14;86.68;103111.34;10427324;28;20030;-70
2022/03/27 11:45:39;;;;;;;22.77;5.53;;;;;;;14.56;83.90;103124.69;10405271;28;20115;-71
2022/03/27 11:50:39;;;;;;;18.88;4.75;;;;;;;14.73;79.55;103107.22;10372332;28;20069;-70
2022/03/27 11:55:40;;;;;;;19.33;5.32;;;;;;;15.21;79.55;103115.91;10388599;28;20434;-70
2022/03/27 12:00:41;;;;;;;24.98;5.63;;;;;;;15.44;77.07;103093.00;10356518;28;20529;-70
2022/03/27 12:05:43;;;;;;;25.80;5.22;;;;;;;15.45;74.66;103103.88;10373037;28;20126;-70
2022/03/27 12:10:57;;;;;;;24.23;5.28;;;;;;;16.09;74.55;103084.84;10355127;28;20046;-70
2022/03/27 12:15:57;;;;;;;25.77;5.78;;;;;;;17.13;69.93;103087.09;10387840;28;20034;-70
2022/03/27 12:21:03;;;;;;;24.58;6.07;;;;;;;18.07;69.63;103082.31;10389030;28;20066;-71
2022/03/27 12:29:39;;;;;;;20.83;5.88;;;;;;;18.89;64.61;103080.84;10355634;28;20041;-68
2022/03/27 12:31:26;;;;;;;22.73;6.25;;;;;;;19.91;62.43;103070.13;10411570;28;20045;-69
2022/03/27 12:36:26;;;;;;;21.50;5.93;;;;;;;19.93;60.50;103082.72;10369063;28;20033;-69
2022/03/27 12:41:38;;;;;;;18.50;5.97;;;;;;;19.38;59.12;103055.81;10406797;28;20025;-69
2022/03/27 12:46:48;;;;;;;25.95;6.25;;;;;;;19.49;61.21;103071.63;10409266;28;20022;-69
2022/03/27 12:51:57;;;;;;;20.35;6.60;;;;;;;19.49;60.19;103063.22;10426379;28;20029;-70
2022/03/27 12:57:00;;;;;;;25.35;5.63;;;;;;;19.63;58.16;103055.25;10409142;28;20025;-68
2022/03/27 13:02:00;;;;;;;24.33;4.93;;;;;;;20.07;58.24;103048.72;10385080;28;20045;-68
2022/03/27 13:07:03;;;;;;;15.75;4.82;;;;;;;20.56;55.74;103032.59;10384782;28;20038;-68
2022/03/27 13:12:11;;;;;;;21.63;4.85;;;;;;;20.68;54.34;103024.03;10351847;28;20109;-68
2022/03/27 13:17:15;;;;;;;25.23;6.10;;;;;;;20.14;54.43;103039.03;10385909;28;20064;-70
2022/03/27 13:22:15;;;;;;;19.02;5.90;;;;;;;19.78;55.70;103025.81;10368284;28;20030;-69
2022/03/27 13:27:15;;;;;;;19.33;4.78;;;;;;;20.01;55.01;103021.84;10384994;28;20505;-69
2022/03/27 13:32:16;;;;;;;16.42;4.63;;;;;;;20.33;56.53;103025.47;10384816;28;20029;-69
2022/03/27 13:37:17;;;;;;;17.55;5.22;;;;;;;20.71;52.98;103020.72;10387413;28;20489;-70
2022/03/27 13:47:37;;;;;;;16.55;4.82;;;;;;;21.20;50.78;102990.69;10435443;28;20508;-72
2022/03/27 13:52:37;;;;;;;21.95;4.95;;;;;;;20.74;48.66;102952.97;10418505;28;20026;-75
2022/03/27 13:57:38;;;;;;;24.52;5.45;;;;;;;20.49;52.25;102990.03;10417880;28;20026;-75
2022/03/27 14:02:38;;;;;;;23.17;5.22;;;;;;;20.92;52.13;102998.44;10401659;28;20328;-74
2022/03/27 14:07:39;;;;;;;22.55;5.07;;;;;;;20.70;52.88;102991.03;10417260;28;20033;-71
2022/03/27 14:12:41;;;;;;;25.38;6.07;;;;;;;20.53;54.27;102998.75;10382912;28;20107;-72
2022/03/27 14:17:41;;;;;;;17.23;4.70;;;;;;;20.20;54.48;102972.78;10417334;28;20037;-72
2022/03/27 14:22:42;;;;;;;18.13;4.43;;;;;;;20.06;53.42;102968.78;10396505;28;20018;-72
2022/03/27 14:27:42;;;;;;;15.32;3.92;;;;;;;20.72;52.14;102966.41;10411612;28;20508;-73
2022/03/27 14:32:43;;;;;;;19.20;4.80;;;;;;;20.87;54.20;102976.00;10411335;28;20619;-74
2022/03/27 14:37:44;;;;;;;28.40;5.25;;;;;;;19.79;56.32;102980.00;10379540;28;20017;-73
2022/03/27 14:42:44;;;;;;;19.10;4.75;;;;;;;19.89;56.93;102980.09;10394614;28;20060;-75
2022/03/27 14:47:45;;;;;;;27.15;5.15;;;;;;;19.45;59.10;102986.66;10410610;28;20029;-71
2022/03/27 14:52:45;;;;;;;24.05;5.28;;;;;;;19.21;59.12;102983.28;10397311;28;20029;-73
2022/03/27 14:57:46;;;;;;;21.98;6.13;;;;;;;19.34;60.33;102979.25;10415515;28;20429;-71
2022/03/27 15:02:46;;;;;;;23.38;5.78;;;;;;;18.61;60.30;102975.81;10409489;28;20039;-72
2022/03/27 15:07:47;;;;;;;20.98;5.35;;;;;;;18.51;61.60;102956.97;10397502;28;20045;-72
2022/03/27 15:12:48;;;;;;;20.48;5.30;;;;;;;18.43;62.30;102980.56;10373373;28;20042;-72
2022/03/27 15:17:48;;;;;;;20.13;4.75;;;;;;;17.85;64.54;102974.34;10390455;28;20033;-72
2022/03/27 15:22:49;;;;;;;22.58;5.45;;;;;;;18.04;65.13;102965.75;10389478;28;20095;-72
2022/03/27 15:27:50;;;;;;;26.38;5.90;;;;;;;18.80;62.67;102957.66;10372608;28;20054;-71
2022/03/27 15:32:50;;;;;;;23.63;6.03;;;;;;;19.02;61.13;102946.50;10388966;28;20041;-73
2022/03/27 15:37:54;;;;;;;23.70;5.95;;;;;;;19.45;60.79;102946.66;10356803;28;20029;-72
2022/03/27 15:42:54;;;;;;;24.50;5.75;;;;;;;19.30;60.59;102905.47;10388714;28;20030;-74
2022/03/27 15:47:55;;;;;;;23.75;6.07;;;;;;;18.99;60.23;102888.41;10392642;28;20037;-72
2022/03/27 15:52:55;;;;;;;24.02;5.32;;;;;;;18.70;60.57;102862.66;10430436;28;20037;-74
2022/03/27 15:57:56;;;;;;;18.70;5.25;;;;;;;19.39;60.37;102934.63;10412817;28;20116;-73
2022/03/27 16:02:57;;;;;;;18.77;5.03;;;;;;;19.38;59.16;102921.75;10403119;28;20072;-75
2022/03/27 16:07:57;;;;;;;99.20;10.73;;;;;;;18.70;61.27;102921.22;10354986;28;20021;-69
2022/03/27 16:12:58;;;;;;;21.92;4.88;;;;;;;17.90;63.53;102927.06;10355318;28;20049;-70
2022/03/27 16:17:58;;;;;;;23.58;5.00;;;;;;;17.59;64.39;102933.19;10372778;28;20042;-68
2022/03/27 16:22:59;;;;;;;22.15;5.38;;;;;;;16.66;66.56;102942.50;10374088;28;20037;-69
2022/03/27 16:27:59;;;;;;;24.95;4.38;;;;;;;14.73;74.18;102956.66;10391054;28;20083;-69
2022/03/27 16:33:00;;;;;;;23.35;5.13;;;;;;;13.80;80.62;102944.56;10379630;28;20087;-69
2022/03/27 16:38:00;;;;;;;23.88;5.50;;;;;;;13.12;86.99;102948.84;10386258;28;20083;-69
2022/03/27 16:43:01;;;;;;;31.42;5.30;;;;;;;12.29;98.78;102960.56;10416747;28;20406;-68
2022/03/27 16:48:01;;;;;;;35.42;6.13;;;;;;;11.77;100.00;102956.75;10364420;28;20038;-69
2022/03/27 16:53:02;;;;;;;29.85;7.50;;;;;;;11.24;100.00;102943.72;10335869;28;20038;-69
2022/03/27 16:58:02;;;;;;;31.67;6.00;;;;;;;10.98;100.00;102946.41;10351866;28;20026;-69
2022/03/27 17:03:03;;;;;;;26.40;6.10;;;;;;;10.98;100.00;102946.41;10385968;28;20042;-68
2022/03/27 17:08:03;;;;;;;22.15;4.63;;;;;;;10.80;100.00;102941.47;10383174;28;20056;-70
2022/03/27 17:13:04;;;;;;;23.60;6.25;;;;;;;10.45;100.00;102930.47;10369874;28;20582;-68
2022/03/27 17:18:05;;;;;;;21.85;4.72;;;;;;;10.33;100.00;102949.47;10356730;28;20054;-69
2022/03/27 17:23:05;;;;;;;20.02;5.40;;;;;;;10.10;100.00;102949.69;10345299;28;20061;-70
2022/03/27 17:28:06;;;;;;;22.48;4.63;;;;;;;9.87;100.00;102945.28;10372034;28;20132;-69
2022/03/27 17:33:08;;;;;;;30.08;4.88;;;;;;;9.79;100.00;102956.44;10376623;28;20040;-69
2022/03/27 17:38:09;;;;;;;32.10;5.07;;;;;;;9.54;100.00;102955.16;10391432;28;20030;-70
2022/03/27 17:43:09;;;;;;;25.63;5.85;;;;;;;9.35;100.00;102952.00;10392460;28;20040;-70
2022/03/27 17:48:10;;;;;;;21.48;5.07;;;;;;;9.11;100.00;102963.34;10392542;28;20029;-70
2022/03/27 17:53:10;;;;;;;22.88;4.28;;;;;;;8.83;100.00;102953.09;10377384;28;20030;-72
2022/03/27 17:58:11;;;;;;;19.05;4.93;;;;;;;8.69;100.00;102969.38;10360411;28;20080;-72
2022/03/27 18:03:11;;;;;;;23.08;5.18;;;;;;;8.14;100.00;102909.44;10360236;28;20048;-71
2022/03/27 18:08:12;;;;;;;18.17;4.88;;;;;;;8.12;100.00;102948.03;10376315;28;20029;-70
2022/03/27 18:13:12;;;;;;;14.85;3.28;;;;;;;7.91;100.00;102953.38;10358762;28;20042;-70
2022/03/27 18:18:13;;;;;;;7.15;2.20;;;;;;;7.71;100.00;102974.97;10376606;28;20034;-70
2022/03/27 18:23:13;;;;;;;13.13;3.22;;;;;;;7.40;100.00;102964.91;10392078;28;20034;-71
2022/03/27 18:28:14;;;;;;;10.07;2.97;;;;;;;7.22;100.00;102978.94;10359789;28;20036;-70
2022/03/27 18:33:14;;;;;;;9.13;1.63;;;;;;;7.06;100.00;102980.72;10400383;28;20037;-70
2022/03/27 18:38:15;;;;;;;5.88;1.70;;;;;;;6.95;100.00;102994.81;10374737;28;20030;-70
2022/03/27 18:43:15;;;;;;;6.00;1.65;;;;;;;6.73;100.00;102980.00;10358723;28;20092;-70
2022/03/27 18:48:19;;;;;;;3.45;1.58;;;;;;;6.70;100.00;102995.94;10376479;28;20026;-70
2022/03/27 18:53:20;;;;;;;3.53;1.50;;;;;;;6.67;100.00;102995.25;10392441;28;20552;-71
2022/03/27 18:58:20;;;;;;;3.15;1.30;;;;;;;6.46;100.00;102984.03;10357878;28;20026;-70
2022/03/27 19:03:21;;;;;;;2.33;1.27;;;;;;;6.39;100.00;102999.47;10341570;28;20022;-70
2022/03/27 19:08:22;;;;;;;3.63;1.25;;;;;;;6.24;100.00;102991.09;10373369;28;20045;-70
2022/03/27 19:13:23;;;;;;;3.95;1.75;;;;;;;6.13;100.00;102992.31;10358218;28;20048;-70
2022/03/27 19:18:24;;;;;;;3.88;2.75;;;;;;;5.99;100.00;102980.16;10344807;28;20033;-70
2022/03/27 19:23:24;;;;;;;5.07;3.20;;;;;;;5.88;100.00;102982.38;10381642;28;20038;-69
2022/03/27 19:28:25;;;;;;;6.35;3.20;;;;;;;5.82;100.00;102998.44;10371036;28;20049;-69
2022/03/27 19:33:27;;;;;;;7.45;4.80;;;;;;;5.60;100.00;102985.44;10372351;28;20038;-69
2022/03/27 19:38:28;;;;;;;7.90;5.32;;;;;;;5.52;100.00;102983.56;10393307;28;20045;-69
2022/03/27 19:43:28;;;;;;;10.80;6.20;;;;;;;5.58;100.00;102982.03;10430426;28;20025;-69
2022/03/27 19:48:29;;;;;;;11.60;7.28;;;;;;;5.67;100.00;102981.03;10394180;28;20064;-69
2022/03/27 19:53:29;;;;;;;11.98;6.75;;;;;;;5.55;100.00;102938.66;10390067;28;20358;-69
2022/03/27 19:58:30;;;;;;;10.70;6.40;;;;;;;5.94;100.00;102981.69;10354068;28;20084;-69
2022/03/27 20:03:31;;;;;;;13.45;5.70;;;;;;;5.95;100.00;102956.09;10371518;28;20029;-70
2022/03/27 20:08:32;;;;;;;10.60;6.18;;;;;;;6.19;100.00;102988.03;10387164;28;20049;-71
2022/03/27 20:13:34;;;;;;;55.53;5.63;;;;;;;6.10;100.00;102986.31;10355412;28;20053;-70
2022/03/27 20:18:34;;;;;;;17.95;5.00;;;;;;;5.95;100.00;102967.03;10370141;28;20568;-70
2022/03/27 20:23:35;;;;;;;11.35;4.85;;;;;;;6.03;100.00;102984.28;10367642;28;20049;-70
2022/03/27 20:28:38;;;;;;;15.48;4.80;;;;;;;6.05;100.00;102984.09;10386158;28;20267;-71
2022/03/27 20:33:39;;;;;;;9.13;3.58;;;;;;;6.00;100.00;102975.59;10365485;28;20034;-70
2022/03/27 20:38:39;;;;;;;11.75;3.78;;;;;;;6.03;100.00;102986.16;10354385;28;20026;-70
2022/03/27 20:43:39;;;;;;;19.92;3.97;;;;;;;6.02;100.00;102985.31;10387944;28;20041;-70
2022/03/27 20:48:40;;;;;;;11.68;4.35;;;;;;;6.08;100.00;102994.72;10368623;28;20062;-71
2022/03/27 20:53:41;;;;;;;8.77;3.88;;;;;;;5.97;100.00;102981.38;10370661;28;20444;-70
2022/03/27 20:58:41;;;;;;;24.40;5.18;;;;;;;6.01;100.00;102982.75;10354211;28;20026;-70
2022/03/27 21:03:42;;;;;;;25.48;5.00;;;;;;;5.89;100.00;102984.09;10353861;28;20042;-70
2022/03/27 21:08:42;;;;;;;9.45;4.93;;;;;;;5.86;100.00;102975.19;10386823;28;20518;-70
2022/03/27 21:13:43;;;;;;;7.30;3.42;;;;;;;5.78;100.00;102968.88;10371415;28;20046;-71
2022/03/27 21:18:44;;;;;;;7.22;3.38;;;;;;;5.70;100.00;102953.34;10371207;28;20053;-71
2022/03/27 21:23:44;;;;;;;7.80;3.63;;;;;;;5.36;100.00;102907.06;10370190;28;20033;-70
2022/03/27 21:28:45;;;;;;;12.90;4.22;;;;;;;5.78;100.00;102961.53;10387457;28;20518;-70
2022/03/27 21:33:45;;;;;;;10.23;4.40;;;;;;;5.85;100.00;102957.09;10388485;28;20465;-70
2022/03/27 21:38:46;;;;;;;35.88;5.38;;;;;;;5.83;100.00;102953.69;10386039;28;20037;-70
2022/03/27 21:43:46;;;;;;;17.10;5.05;;;;;;;5.84;100.00;102955.38;10387323;28;20536;-70
2022/03/27 21:48:47;;;;;;;18.23;3.72;;;;;;;5.86;100.00;102945.13;10352947;28;20141;-71
2022/03/27 21:53:48;;;;;;;12.65;5.05;;;;;;;5.89;100.00;102946.69;10369179;28;20030;-70
2022/03/27 21:58:48;;;;;;;15.27;5.63;;;;;;;5.83;100.00;102937.28;10369650;28;20065;-71
2022/03/27 22:03:49;;;;;;;16.23;6.70;;;;;;;5.88;100.00;102944.13;10382821;28;20105;-71
2022/03/27 22:08:49;;;;;;;20.80;7.00;;;;;;;5.82;100.00;102946.50;10392481;28;20029;-71
2022/03/27 22:13:51;;;;;;;31.33;8.43;;;;;;;5.65;100.00;102912.00;10360094;28;20042;-70
2022/03/27 22:18:52;;;;;;;34.85;9.60;;;;;;;5.66;100.00;102924.63;10394273;28;20038;-71
2022/03/27 22:23:52;;;;;;;23.25;10.02;;;;;;;5.68;100.00;102928.06;10375588;28;20462;-71
2022/03/27 22:28:58;;;;;;;29.92;11.32;;;;;;;5.69;100.00;102918.84;10358657;28;20034;-71
2022/03/27 22:33:59;;;;;;;20.75;10.68;;;;;;;5.70;100.00;102917.81;10376079;28;20442;-71
2022/03/27 22:38:59;;;;;;;23.98;11.93;;;;;;;5.68;100.00;102906.19;10359528;28;20034;-70
2022/03/27 22:44:00;;;;;;;26.33;12.73;;;;;;;5.77;100.00;102904.31;10359570;28;20030;-70
2022/03/27 22:49:00;;;;;;;26.30;13.25;;;;;;;5.80;100.00;102903.97;10359121;28;20041;-71
2022/03/27 22:54:02;;;;;;;34.20;15.88;;;;;;;5.76;100.00;102899.88;10374240;28;20422;-71
2022/03/27 22:59:03;;;;;;;28.83;14.23;;;;;;;5.75;100.00;102890.81;10357861;28;20084;-71
2022/03/27 23:04:05;;;;;;;29.58;14.77;;;;;;;5.57;100.00;102839.09;10373612;28;20033;-69
2022/03/27 23:09:06;;;;;;;27.95;15.00;;;;;;;5.79;100.00;102881.25;10408354;28;20029;-69
2022/03/27 23:14:07;;;;;;;23.55;11.93;;;;;;;5.87;100.00;102883.13;10396929;28;20046;-69